KSQI/SQI METAR and TAF weather

Enter ICAO airport designator
Station Type Date Time Source
KSQI METAR 2021/09/25 01:56 UTC NOAA

KSQI 250156Z 30009KT 10SM -RA FEW030 BKN050 OVC055 14/14 A2992 RMK AO2 RAB05 SLP998 T01440139


Station Type Date Time Source
KSQI Decoded METAR 2021/09/25 01:56 UTC NOAA

Sterling Rockfalls, IL, United States (KSQI) 41-45N 089-40W
Sep 24, 2021 - 09:56 PM EDT / 2021.09.25 0156 UTC
Wind: from the WNW (300 degrees) at 10 MPH (9 KT):0
Visibility: 10 mile(s):0
Sky conditions: overcast
Weather: light rain
Temperature: 57.9 F (14.4 C)
Dew Point: 57.0 F (13.9 C)
Relative Humidity: 96%
Pressure (altimeter): 29.92 in. Hg (1013 hPa)
ob: KSQI 250156Z 30009KT 10SM -RA FEW030 BKN050 OVC055 14/14 A2992 RMK AO2 RAB05 SLP998 T01440139
cycle: 2

Station Type Date Time Source
KSQI TAF UTC NOAA

Error!

Example: see airport list